createdAt,value
2023-03-27T00:00:23.122Z,98979.72
2023-03-27T00:03:15.016Z,98977.44
2023-03-27T00:05:44.386Z,98973.78
2023-03-27T00:08:14.528Z,98976.28
2023-03-27T00:10:43.916Z,98967.41
2023-03-27T00:13:14.527Z,98967.41
2023-03-27T00:15:43.518Z,98962.44
2023-03-27T00:18:13.380Z,98961.47
2023-03-27T00:20:42.597Z,98957.22
2023-03-27T00:23:11.599Z,98948.66
2023-03-27T00:25:41.571Z,98946.78
2023-03-27T00:28:10.602Z,98940.34
2023-03-27T00:30:41.336Z,98942.22
2023-03-27T00:33:12.746Z,98943.75
2023-03-27T00:40:17.685Z,98940.84
2023-03-27T00:42:48.196Z,98940.84
2023-03-27T00:45:19.913Z,98948.06
2023-03-27T00:47:56.673Z,98948.06
2023-03-27T00:50:30.025Z,98943.47
2023-03-27T00:53:06.287Z,98943.03
2023-03-27T00:55:40.558Z,98942.28
2023-03-27T00:58:18.591Z,98943.16
2023-03-27T01:00:52.250Z,98935.94
2023-03-27T01:03:25.554Z,98924.69
2023-03-27T01:05:57.064Z,98936.47
2023-03-27T01:08:30.839Z,98942.63
2023-03-27T01:11:16.098Z,98945.53
2023-03-27T01:14:11.441Z,98945.13
2023-03-27T01:16:53.174Z,98943.78
2023-03-27T01:20:01.066Z,98953.34
2023-03-27T01:23:11.317Z,98949.78
2023-03-27T01:26:35.547Z,98954.19
2023-03-27T01:29:18.252Z,98954.06
2023-03-27T01:32:15.013Z,98953.22
2023-03-27T01:35:33.289Z,98946.47
2023-03-27T01:38:30.523Z,98943.75
2023-03-27T01:41:11.019Z,98950.63
2023-03-27T01:43:50.437Z,98945.50
2023-03-27T01:46:26.831Z,98952.78
2023-03-27T01:49:02.284Z,98952.06
2023-03-27T01:51:39.568Z,98961.56
2023-03-27T01:54:20.349Z,98965.28
2023-03-27T01:56:56.683Z,98972.38
2023-03-27T01:59:29.603Z,98968.94
2023-03-27T02:02:07.771Z,98963.28
2023-03-27T02:04:46.948Z,98964.03
2023-03-27T02:07:24.171Z,98965.06
2023-03-27T02:10:00.357Z,98961.53
2023-03-27T02:12:35.059Z,98955.03
2023-03-27T02:15:23.877Z,98957.03
2023-03-27T02:18:05.004Z,98957.22
2023-03-27T02:20:35.635Z,98955.00
2023-03-27T02:23:07.744Z,98954.81
2023-03-27T02:25:39.988Z,98954.91
2023-03-27T02:28:42.380Z,98952.28
2023-03-27T02:31:35.443Z,98961.44
2023-03-27T02:34:46.392Z,98968.53
2023-03-27T02:37:32.433Z,98964.03
2023-03-27T02:40:40.387Z,98964.16
2023-03-27T02:43:49.637Z,98961.84
2023-03-27T02:46:34.558Z,98959.25
2023-03-27T02:49:10.067Z,98958.59
2023-03-27T02:51:45.997Z,98957.13
2023-03-27T02:54:20.380Z,98965.03
2023-03-27T02:56:56.240Z,98956.59
2023-03-27T02:59:40.470Z,98959.28
2023-03-27T03:02:19.916Z,98957.50
2023-03-27T03:05:05.127Z,98951.75
2023-03-27T03:07:40.326Z,98957.63
2023-03-27T03:10:12.544Z,98951.13
2023-03-27T03:12:42.543Z,98966.00
2023-03-27T03:15:13.628Z,98966.28
2023-03-27T03:17:42.820Z,98972.44
2023-03-27T03:20:16.803Z,98976.06
2023-03-27T03:22:46.082Z,98972.44
2023-03-27T03:25:19.915Z,98969.84
2023-03-27T03:27:49.157Z,98968.88
2023-03-27T03:30:19.743Z,98962.03
2023-03-27T03:33:00.166Z,98965.38
2023-03-27T03:35:29.222Z,98954.13
2023-03-27T03:37:59.434Z,98963.78
2023-03-27T03:40:29.572Z,98964.63
2023-03-27T03:43:01.176Z,98964.53
2023-03-27T03:45:33.292Z,98972.25
2023-03-27T03:48:02.620Z,98972.88
2023-03-27T03:50:31.824Z,98978.53
2023-03-27T03:53:00.863Z,98972.09
2023-03-27T03:55:29.620Z,98969.00
2023-03-27T03:57:59.257Z,98973.09
2023-03-27T04:05:15.549Z,98964.88
2023-03-27T04:07:45.682Z,98973.63
2023-03-27T04:10:33.126Z,98971.66
2023-03-27T04:13:06.408Z,98978.13
2023-03-27T04:15:39.858Z,98984.59
2023-03-27T04:18:24.767Z,98982.34
2023-03-27T04:20:58.659Z,98977.69
2023-03-27T04:23:30.395Z,98975.69
2023-03-27T04:26:02.057Z,98982.41
2023-03-27T04:28:54.287Z,98983.94
2023-03-27T04:31:46.571Z,98990.22
2023-03-27T04:34:50.352Z,98991.56
2023-03-27T04:37:43.068Z,98984.47
2023-03-27T04:40:27.419Z,98987.41
2023-03-27T04:42:56.585Z,98988.69
2023-03-27T04:45:25.798Z,98990.56
2023-03-27T04:47:55.733Z,98989.81
2023-03-27T04:50:24.600Z,98997.44
2023-03-27T04:52:58.733Z,98993.56
2023-03-27T04:55:30.654Z,99012.75
2023-03-27T04:58:00.224Z,99007.00
2023-03-27T05:05:18.495Z,99015.53
2023-03-27T05:07:48.683Z,99023.06
2023-03-27T05:10:23.943Z,99021.00
2023-03-27T05:12:57.105Z,99020.56
2023-03-27T05:15:27.818Z,99018.28
2023-03-27T05:17:57.843Z,99018.00
2023-03-27T05:20:28.685Z,99018.09
2023-03-27T05:22:58.095Z,99027.78
2023-03-27T05:25:33.997Z,99023.72
2023-03-27T05:28:06.290Z,99016.97
2023-03-27T05:30:37.985Z,99022.81
2023-03-27T05:33:33.014Z,99034.53
2023-03-27T05:36:03.211Z,99034.94
2023-03-27T05:38:33.201Z,99038.09
2023-03-27T05:41:07.394Z,99041.94
2023-03-27T05:48:14.556Z,99034.06
2023-03-27T05:50:44.069Z,99045.03
2023-03-27T05:53:27.930Z,99044.00
2023-03-27T05:56:33.539Z,99043.44
2023-03-27T05:59:05.001Z,99044.91
2023-03-27T06:01:36.615Z,99047.31
2023-03-27T06:08:39.085Z,99064.22
2023-03-27T06:11:12.005Z,99067.66
2023-03-27T06:13:49.539Z,99067.03
2023-03-27T06:16:23.222Z,99067.13
2023-03-27T06:19:07.456Z,99067.13
2023-03-27T06:21:46.177Z,99067.34
2023-03-27T06:28:46.231Z,99085.50
2023-03-27T06:31:17.657Z,99085.81
2023-03-27T06:34:05.173Z,99083.50
2023-03-27T06:36:43.938Z,99090.50
2023-03-27T06:39:14.416Z,99091.84
2023-03-27T06:41:50.083Z,99090.88
2023-03-27T06:44:26.981Z,99092.97
2023-03-27T06:47:17.564Z,99100.38
2023-03-27T06:50:06.689Z,99100.66
2023-03-27T06:52:35.616Z,99107.34
2023-03-27T06:55:22.419Z,99110.63
2023-03-27T06:57:57.694Z,99109.91
2023-03-27T07:00:30.071Z,99110.81
2023-03-27T07:03:19.998Z,99113.66
2023-03-27T07:06:26.981Z,99115.31
2023-03-27T07:09:01.854Z,99109.66
2023-03-27T07:11:32.361Z,99115.94
2023-03-27T07:14:08.612Z,99112.44
2023-03-27T07:16:37.759Z,99110.19
2023-03-27T07:19:08.148Z,99113.31
2023-03-27T07:21:41.647Z,99113.81
2023-03-27T07:24:13.083Z,99120.84
2023-03-27T07:26:42.174Z,99121.44
2023-03-27T07:29:34.157Z,99120.81
2023-03-27T07:32:07.097Z,99126.53
2023-03-27T07:34:46.249Z,99128.44
2023-03-27T07:37:55.503Z,99130.34
2023-03-27T07:40:46.212Z,99138.91
2023-03-27T07:43:36.478Z,99140.47
2023-03-27T07:46:06.613Z,99146.53
2023-03-27T07:48:36.119Z,99142.97
2023-03-27T07:51:13.832Z,99155.47
2023-03-27T07:53:44.452Z,99157.84
2023-03-27T07:56:23.562Z,99160.81
2023-03-27T07:59:07.782Z,99163.56
2023-03-27T08:01:36.707Z,99159.66
2023-03-27T08:04:06.800Z,99168.91
2023-03-27T08:06:38.710Z,99175.34
2023-03-27T08:09:14.596Z,99178.22
2023-03-27T08:11:44.427Z,99174.53
2023-03-27T08:14:13.944Z,99173.94
2023-03-27T08:16:43.295Z,99180.47
2023-03-27T08:19:14.162Z,99189.63
2023-03-27T08:21:49.453Z,99190.38
2023-03-27T08:24:18.621Z,99190.47
2023-03-27T08:27:06.315Z,99197.28
2023-03-27T08:29:41.690Z,99200.63
2023-03-27T08:32:11.921Z,99203.94
2023-03-27T08:34:44.350Z,99208.13
2023-03-27T08:37:15.159Z,99208.94
2023-03-27T08:40:03.506Z,99215.84
2023-03-27T08:42:39.771Z,99207.03
2023-03-27T08:45:23.642Z,99218.50
2023-03-27T08:48:03.042Z,99208.34
2023-03-27T08:50:40.804Z,99226.38
2023-03-27T08:53:34.147Z,99235.19
2023-03-27T08:56:07.083Z,99228.72
2023-03-27T08:58:41.613Z,99228.88
2023-03-27T09:01:41.259Z,99233.69
2023-03-27T09:04:32.969Z,99219.72
2023-03-27T09:11:55.985Z,99238.75
2023-03-27T09:14:37.385Z,99240.31
2023-03-27T09:17:17.410Z,99244.09
2023-03-27T09:19:55.604Z,99244.69
2023-03-27T09:22:36.247Z,99254.25
2023-03-27T09:25:28.351Z,99254.25
2023-03-27T09:28:03.512Z,99265.53
2023-03-27T09:30:46.275Z,99278.00
2023-03-27T09:33:27.061Z,99273.50
2023-03-27T09:36:02.941Z,99276.13
2023-03-27T09:38:38.959Z,99274.44
2023-03-27T09:41:21.624Z,99273.59
2023-03-27T09:44:03.632Z,99271.34
2023-03-27T09:46:39.487Z,99275.00
2023-03-27T09:49:15.145Z,99279.44
2023-03-27T09:51:52.034Z,99279.84
2023-03-27T09:54:53.809Z,99292.28
2023-03-27T09:57:37.438Z,99291.81
2023-03-27T10:00:30.892Z,99294.88
2023-03-27T10:03:08.010Z,99301.63
2023-03-27T10:10:26.690Z,99306.66
2023-03-27T10:13:24.446Z,99313.63
2023-03-27T10:16:03.055Z,99306.97
2023-03-27T10:18:46.692Z,99312.72
2023-03-27T10:21:28.013Z,99311.47
2023-03-27T10:24:05.283Z,99320.25
2023-03-27T10:26:54.568Z,99324.91
2023-03-27T10:34:08.240Z,99327.19
2023-03-27T10:38:35.518Z,99325.09
2023-03-27T10:41:32.596Z,99324.25
2023-03-27T10:44:05.807Z,99329.56
2023-03-27T10:46:41.195Z,99323.81
2023-03-27T10:49:28.859Z,99332.91
2023-03-27T10:52:13.406Z,99322.56
2023-03-27T10:55:18.810Z,99330.13
2023-03-27T10:57:57.785Z,99329.25
2023-03-27T11:00:41.043Z,99340.97
2023-03-27T11:03:21.938Z,99338.75
2023-03-27T11:06:07.787Z,99335.53
2023-03-27T11:08:55.564Z,99339.47
2023-03-27T11:11:35.455Z,99340.38
2023-03-27T11:14:12.688Z,99342.50
2023-03-27T11:16:47.970Z,99334.13
2023-03-27T11:19:43.029Z,99334.75
2023-03-27T11:22:39.662Z,99334.41
2023-03-27T11:25:25.288Z,99335.06
2023-03-27T11:28:06.874Z,99335.97
2023-03-27T11:30:44.715Z,99329.69
2023-03-27T11:38:42.376Z,99340.94
2023-03-27T11:41:15.475Z,99333.94
2023-03-27T11:43:45.322Z,99340.09
2023-03-27T11:47:25.045Z,99330.13
2023-03-27T11:50:17.739Z,99335.16
2023-03-27T11:53:13.748Z,99339.00
2023-03-27T11:56:29.151Z,99338.84
2023-03-27T11:59:42.909Z,99335.13
2023-03-27T12:02:58.402Z,99334.25
2023-03-27T12:05:47.130Z,99341.06
2023-03-27T12:08:32.622Z,99338.94
2023-03-27T12:11:06.569Z,99331.09
2023-03-27T12:14:01.845Z,99340.75
2023-03-27T12:17:11.656Z,99336.78
2023-03-27T12:20:33.562Z,99341.22
2023-03-27T12:23:32.349Z,99345.88
2023-03-27T12:26:53.203Z,99334.50
2023-03-27T12:30:00.578Z,99339.63
2023-03-27T12:33:00.949Z,99327.38
2023-03-27T12:35:39.133Z,99333.53
2023-03-27T12:38:17.439Z,99333.81
2023-03-27T12:41:02.885Z,99349.06
2023-03-27T12:43:48.631Z,99343.31
2023-03-27T12:46:39.055Z,99344.25
2023-03-27T12:49:48.101Z,99352.75
2023-03-27T12:52:28.619Z,99355.53
2023-03-27T12:55:33.189Z,99362.50
2023-03-27T12:58:05.908Z,99367.47
2023-03-27T13:01:00.859Z,99365.44
2023-03-27T13:04:32.061Z,99370.50
2023-03-27T13:07:12.856Z,99372.50
2023-03-27T13:10:22.324Z,99383.34
2023-03-27T13:13:20.749Z,99382.19
2023-03-27T13:16:43.998Z,99388.81
2023-03-27T13:19:54.031Z,99392.63
2023-03-27T13:27:22.148Z,99398.91
2023-03-27T13:29:54.194Z,99411.38
2023-03-27T13:32:37.009Z,99402.81
2023-03-27T13:35:40.781Z,99405.44
2023-03-27T13:38:13.590Z,99411.91
2023-03-27T13:41:51.879Z,99418.63
2023-03-27T13:45:02.017Z,99424.09
2023-03-27T13:48:18.408Z,99427.75
2023-03-27T13:56:12.633Z,99440.53
2023-03-27T13:59:52.667Z,99454.97
2023-03-27T14:03:13.679Z,99453.09
2023-03-27T14:06:40.450Z,99468.56
2023-03-27T14:09:26.717Z,99476.94
2023-03-27T14:12:31.867Z,99488.31
2023-03-27T14:16:04.219Z,99488.03
2023-03-27T14:19:02.600Z,99493.53
2023-03-27T14:21:50.940Z,99494.69
2023-03-27T14:26:04.105Z,99490.81
2023-03-27T14:28:51.662Z,99508.28
2023-03-27T14:31:35.513Z,99508.38
2023-03-27T14:34:22.489Z,99501.66
2023-03-27T14:36:52.650Z,99524.78
2023-03-27T14:39:39.395Z,99524.81
2023-03-27T14:42:17.844Z,99523.56
2023-03-27T14:44:53.863Z,99528.63
2023-03-27T14:47:24.510Z,99546.34
2023-03-27T14:49:58.942Z,99532.53
2023-03-27T14:52:56.009Z,99554.06
2023-03-27T14:55:36.120Z,99571.50
2023-03-27T14:58:26.329Z,99566.94
2023-03-27T15:01:02.553Z,99568.56
2023-03-27T15:03:39.322Z,99567.59
2023-03-27T15:06:17.009Z,99573.22
2023-03-27T15:08:55.864Z,99583.91
2023-03-27T15:11:48.777Z,99581.69
2023-03-27T15:14:28.920Z,99573.09
2023-03-27T15:21:45.173Z,99592.03
2023-03-27T15:24:21.864Z,99602.25
2023-03-27T15:26:53.512Z,99615.72
2023-03-27T15:29:39.305Z,99621.44
2023-03-27T15:32:14.912Z,99631.03
2023-03-27T15:34:47.701Z,99623.06
2023-03-27T15:37:25.497Z,99629.28
2023-03-27T15:40:07.292Z,99631.13
2023-03-27T15:42:47.862Z,99633.72
2023-03-27T15:45:18.555Z,99638.09
2023-03-27T15:48:02.968Z,99637.94
2023-03-27T15:50:31.748Z,99641.13
2023-03-27T15:53:03.263Z,99649.03
2023-03-27T15:55:40.885Z,99653.56
2023-03-27T15:58:26.449Z,99660.06
2023-03-27T16:01:01.593Z,99661.91
2023-03-27T16:03:35.469Z,99657.63
2023-03-27T16:06:05.325Z,99659.47
2023-03-27T16:08:41.027Z,99672.06
2023-03-27T16:11:13.195Z,99663.56
2023-03-27T16:13:56.862Z,99672.50
2023-03-27T16:16:28.223Z,99676.59
2023-03-27T16:19:02.694Z,99680.13
2023-03-27T16:21:37.213Z,99693.41
2023-03-27T16:28:39.297Z,99701.09
2023-03-27T16:31:13.097Z,99708.16
2023-03-27T16:33:45.257Z,99716.81
2023-03-27T16:36:16.150Z,99714.28
2023-03-27T16:38:45.689Z,99722.84
2023-03-27T16:41:15.527Z,99737.50
2023-03-27T16:43:46.524Z,99731.50
2023-03-27T16:46:22.425Z,99752.09
2023-03-27T16:53:23.710Z,99760.34
2023-03-27T16:55:55.429Z,99766.78
2023-03-27T16:58:24.562Z,99769.25
2023-03-27T17:00:54.747Z,99771.19
2023-03-27T17:03:23.807Z,99771.53
2023-03-27T17:05:52.649Z,99774.28
2023-03-27T17:08:21.697Z,99781.13
2023-03-27T17:10:50.730Z,99799.69
2023-03-27T17:13:19.752Z,99806.91
2023-03-27T17:15:51.249Z,99811.97
2023-03-27T17:18:21.873Z,99807.03
2023-03-27T17:20:50.659Z,99806.66
2023-03-27T17:23:19.973Z,99816.09
2023-03-27T17:30:36.686Z,99828.66
2023-03-27T17:33:07.228Z,99824.84
2023-03-27T17:35:40.037Z,99833.41
2023-03-27T17:38:10.315Z,99832.09
2023-03-27T17:40:41.868Z,99833.53
2023-03-27T17:47:42.064Z,99851.00
2023-03-27T17:59:18.444Z,99869.00
2023-03-27T18:06:19.406Z,99869.84
2023-03-27T18:08:48.730Z,99882.78
2023-03-27T18:11:18.163Z,99885.16
2023-03-27T18:13:51.417Z,99888.00
2023-03-27T18:16:23.174Z,99895.81
2023-03-27T18:18:54.917Z,99894.41
2023-03-27T18:21:24.247Z,99895.34
2023-03-27T18:23:53.883Z,99904.66
2023-03-27T18:26:23.725Z,99902.94
2023-03-27T18:28:53.430Z,99911.31
2023-03-27T18:31:24.023Z,99917.88
2023-03-27T18:33:53.136Z,99922.03
2023-03-27T18:36:22.305Z,99920.59
2023-03-27T18:38:52.088Z,99920.06
2023-03-27T18:41:21.181Z,99923.59
2023-03-27T18:43:49.955Z,99931.28
2023-03-27T18:46:19.421Z,99944.06
2023-03-27T18:48:49.973Z,99936.25
2023-03-27T18:51:19.475Z,99946.31
2023-03-27T18:53:48.257Z,99944.47
2023-03-27T19:00:52.934Z,99942.44
2023-03-27T19:03:24.424Z,99945.63
2023-03-27T19:05:55.168Z,99947.53
2023-03-27T19:08:24.001Z,99951.47
2023-03-27T19:10:56.441Z,99953.28
2023-03-27T19:13:45.515Z,99957.31
2023-03-27T19:21:17.087Z,99961.50
2023-03-27T19:24:04.362Z,99975.63
2023-03-27T19:26:43.897Z,99970.25
2023-03-27T19:29:13.759Z,99975.03
2023-03-27T19:31:42.958Z,99967.66
2023-03-27T19:34:11.906Z,99979.47
2023-03-27T19:36:42.918Z,99978.53
2023-03-27T19:39:11.704Z,99984.41
2023-03-27T19:41:41.493Z,99971.88
2023-03-27T19:44:10.372Z,99987.13
2023-03-27T19:46:39.650Z,99980.31
2023-03-27T19:49:09.063Z,99980.88
2023-03-27T19:51:47.211Z,99988.84
2023-03-27T19:54:17.645Z,99993.19
2023-03-27T20:01:20.194Z,99993.59
2023-03-27T20:03:49.170Z,100001.75
2023-03-27T20:06:19.600Z,100000.00
2023-03-27T20:08:49.881Z,100001.09
2023-03-27T20:11:20.385Z,100005.50
2023-03-27T20:13:56.641Z,100006.97
2023-03-27T20:16:28.572Z,100001.56
2023-03-27T20:19:04.583Z,100010.09
2023-03-27T20:21:37.756Z,100015.06
2023-03-27T20:28:47.044Z,100021.94
2023-03-27T20:31:16.099Z,100010.00
2023-03-27T20:33:45.586Z,100024.81
2023-03-27T20:36:16.650Z,100027.94
2023-03-27T20:38:48.729Z,100023.84
2023-03-27T20:41:17.727Z,100022.59
2023-03-27T20:43:48.933Z,100019.91
2023-03-27T20:46:18.124Z,100021.16
2023-03-27T20:48:54.083Z,100033.84
2023-03-27T20:51:25.169Z,100028.03
2023-03-27T20:53:58.250Z,100024.41
2023-03-27T21:05:38.339Z,100016.47
2023-03-27T21:08:07.974Z,100022.72
2023-03-27T21:10:37.250Z,100020.44
2023-03-27T21:13:06.791Z,100030.69
2023-03-27T21:15:36.293Z,100026.25
2023-03-27T21:18:05.516Z,100023.72
2023-03-27T21:20:36.079Z,100021.59
2023-03-27T21:23:04.904Z,100017.19
2023-03-27T21:25:36.152Z,100024.13
2023-03-27T21:28:08.719Z,100024.28
2023-03-27T21:30:46.285Z,100022.53
2023-03-27T21:33:17.647Z,100024.19
2023-03-27T21:35:50.242Z,100022.72
2023-03-27T21:38:19.543Z,100021.25
2023-03-27T21:40:48.821Z,100014.63
2023-03-27T21:43:17.839Z,100022.28
2023-03-27T21:45:49.811Z,100024.03
2023-03-27T21:48:19.077Z,100023.19
2023-03-27T21:50:49.470Z,100021.53
2023-03-27T21:53:18.397Z,100021.81
2023-03-27T21:55:47.969Z,100016.78
2023-03-27T21:58:16.778Z,100013.44
2023-03-27T22:00:46.492Z,100007.44
2023-03-27T22:03:16.229Z,100014.19
2023-03-27T22:05:54.250Z,100015.16
2023-03-27T22:08:31.446Z,100003.22
2023-03-27T22:15:32.185Z,100010.41
2023-03-27T22:18:01.262Z,100012.16
2023-03-27T22:20:30.771Z,100013.13
2023-03-27T22:22:59.571Z,100018.38
2023-03-27T22:25:29.909Z,100018.38
2023-03-27T22:28:00.028Z,100014.00
2023-03-27T22:30:30.918Z,100012.28
2023-03-27T22:32:59.728Z,100019.22
2023-03-27T22:35:28.808Z,100014.97
2023-03-27T22:37:57.532Z,100008.03
2023-03-27T22:40:26.517Z,100013.13
2023-03-27T22:42:57.381Z,100008.81
2023-03-27T22:45:26.443Z,100012.38
2023-03-27T22:47:55.431Z,100008.13
2023-03-27T22:50:24.427Z,100010.66
2023-03-27T22:52:53.166Z,100008.22
2023-03-27T22:55:22.225Z,100008.22
2023-03-27T22:57:50.934Z,100010.75
2023-03-27T23:00:22.460Z,100011.72
2023-03-27T23:02:51.253Z,100013.50
2023-03-27T23:05:20.553Z,100016.03
2023-03-27T23:07:49.387Z,100027.28
2023-03-27T23:10:18.553Z,100021.34
2023-03-27T23:12:47.258Z,100023.06
2023-03-27T23:15:16.389Z,100024.84
2023-03-27T23:18:00.719Z,100027.44
2023-03-27T23:20:31.205Z,100036.09
2023-03-27T23:22:59.960Z,100035.25
2023-03-27T23:25:28.999Z,100042.31
2023-03-27T23:27:58.231Z,100041.50
2023-03-27T23:30:27.289Z,100046.06
2023-03-27T23:32:56.632Z,100047.88
2023-03-27T23:35:27.070Z,100042.59
2023-03-27T23:37:55.899Z,100046.16
2023-03-27T23:40:24.970Z,100049.56
2023-03-27T23:42:53.729Z,100049.66
2023-03-27T23:45:22.920Z,100050.50
2023-03-27T23:47:51.608Z,100056.63
2023-03-27T23:50:20.637Z,100058.38
2023-03-27T23:52:50.812Z,100057.63
2023-03-27T23:55:19.818Z,100050.66
2023-03-27T23:57:48.505Z,100051.53
